Time;durP1;ratioP1;P1;durP2;ratioP2;P2;SDS_P1;SDS_P2;PMS_P1;PMS_P2;Temp;Humidity;BMP_temperature;BMP_pressure;BME280_temperature;BME280_humidity;BME280_pressure;Samples;Min_cycle;Max_cycle;Signal;HPM_P1;HPM_P2
2021/03/29 00:00:30;;;;;;;6.28;3.50;;;;;;;8.36;44.52;96028.41;4222603;28;20058;-69
2021/03/29 00:02:31;;;;;;;6.25;3.53;;;;;;;8.43;44.69;96033.22;4207450;28;20048;-70
2021/03/29 00:04:32;;;;;;;6.20;3.58;;;;;;;8.46;44.21;96030.38;4210841;28;20392;-69
2021/03/29 00:06:35;;;;;;;6.70;3.72;;;;;;;8.44;44.45;96030.50;4208195;28;20086;-71
2021/03/29 00:08:38;;;;;;;5.35;3.85;;;;;;;8.46;44.57;96033.00;4208083;28;20056;-70
2021/03/29 00:10:41;;;;;;;7.80;3.65;;;;;;;8.45;44.23;96037.38;4207632;28;20044;-71
2021/03/29 00:12:44;;;;;;;6.57;3.92;;;;;;;8.40;44.45;96035.09;4218009;28;20077;-71
2021/03/29 00:14:46;;;;;;;6.10;3.95;;;;;;;8.40;44.53;96037.72;4222035;28;20055;-70
2021/03/29 00:16:47;;;;;;;6.70;3.63;;;;;;;8.43;44.32;96035.81;4209049;28;20171;-70
2021/03/29 00:18:50;;;;;;;5.22;3.38;;;;;;;8.42;44.29;96039.38;4225405;28;20315;-70
2021/03/29 00:20:54;;;;;;;9.18;3.88;;;;;;;8.36;44.92;96040.63;4230022;27;20051;-70
2021/03/29 00:22:57;;;;;;;6.03;4.13;;;;;;;8.42;44.46;96023.72;4205478;28;20495;-69
2021/03/29 00:24:59;;;;;;;6.18;3.60;;;;;;;8.42;44.73;96019.31;4207063;28;20054;-69
2021/03/29 00:27:01;;;;;;;7.60;4.00;;;;;;;8.42;44.24;96019.31;4209739;28;20048;-70
2021/03/29 00:29:03;;;;;;;6.75;3.88;;;;;;;8.44;44.71;96016.63;4209607;28;20048;-71
2021/03/29 00:31:06;;;;;;;7.22;3.83;;;;;;;8.39;44.54;96017.75;4226451;28;20051;-71
2021/03/29 00:33:08;;;;;;;8.48;3.70;;;;;;;8.36;44.30;96017.13;4205892;28;20079;-71
2021/03/29 00:35:11;;;;;;;7.38;3.80;;;;;;;8.38;44.62;96010.03;4217525;28;20048;-71
2021/03/29 00:37:13;;;;;;;7.50;3.85;;;;;;;8.31;44.35;96003.59;4227124;28;20515;-72
2021/03/29 00:39:15;;;;;;;7.25;3.83;;;;;;;8.27;44.69;96009.97;4208409;28;20660;-70
2021/03/29 00:41:17;;;;;;;6.63;3.33;;;;;;;8.24;44.69;96010.19;4209312;28;20056;-70
2021/03/29 00:43:23;;;;;;;5.40;3.75;;;;;;;8.29;44.40;96011.53;4209512;28;20052;-71
2021/03/29 00:45:25;;;;;;;6.40;3.20;;;;;;;8.24;44.64;96012.81;4201888;28;20045;-72
2021/03/29 00:47:27;;;;;;;7.80;3.75;;;;;;;8.17;44.69;96013.28;4221159;28;20429;-71
2021/03/29 00:49:28;;;;;;;8.07;3.78;;;;;;;8.18;44.89;96012.31;4203669;28;20529;-70
2021/03/29 00:51:32;;;;;;;6.90;3.80;;;;;;;8.20;44.55;96017.44;4201829;28;20566;-72
2021/03/29 00:53:34;;;;;;;8.85;3.63;;;;;;;8.14;45.01;96018.72;4213816;28;20556;-71
2021/03/29 00:55:36;;;;;;;6.15;3.45;;;;;;;8.10;45.02;96022.47;4199827;28;20044;-71
2021/03/29 00:57:39;;;;;;;5.40;3.50;;;;;;;8.16;45.10;96027.25;4207557;28;20040;-86
2021/03/29 00:59:41;;;;;;;6.70;3.70;;;;;;;8.11;45.28;96013.72;4229660;28;20340;-86
2021/03/29 01:01:47;;;;;;;5.03;3.33;;;;;;;8.07;45.32;96016.66;4216332;28;20119;-85
2021/03/29 01:03:54;;;;;;;5.53;3.95;;;;;;;8.07;45.08;96022.72;4231962;28;20052;-83
2021/03/29 01:06:06;;;;;;;5.95;3.63;;;;;;;8.01;45.45;96017.94;4210886;28;20056;-86
2021/03/29 01:08:08;;;;;;;6.78;3.78;;;;;;;7.96;45.50;96015.66;4221596;28;20084;-84
2021/03/29 01:10:10;;;;;;;7.25;3.53;;;;;;;7.94;45.73;96022.75;4219847;28;20044;-83
2021/03/29 01:12:12;;;;;;;6.65;3.42;;;;;;;7.96;45.80;96014.84;4219612;28;20051;-84
2021/03/29 01:14:20;;;;;;;6.05;3.83;;;;;;;7.98;44.87;96021.59;4197702;28;20053;-85
2021/03/29 01:16:22;;;;;;;6.40;3.90;;;;;;;8.02;45.39;96023.97;4213533;28;20052;-84
2021/03/29 01:18:25;;;;;;;6.82;4.13;;;;;;;8.02;45.42;96024.81;4227275;28;20453;-84
2021/03/29 01:20:29;;;;;;;5.93;3.47;;;;;;;8.05;44.64;96022.00;4212114;28;20082;-82
2021/03/29 01:22:36;;;;;;;6.55;3.45;;;;;;;8.08;45.03;96018.31;4235428;28;20040;-84
2021/03/29 01:24:58;;;;;;;7.60;3.95;;;;;;;8.05;44.71;96022.00;4207865;28;20486;-83
2021/03/29 01:27:00;;;;;;;8.25;3.58;;;;;;;8.10;44.72;96021.66;4225533;28;20398;-84
2021/03/29 01:29:01;;;;;;;7.97;3.97;;;;;;;8.08;44.79;96018.31;4196064;28;20048;-84
2021/03/29 01:31:03;;;;;;;6.63;3.55;;;;;;;8.07;44.75;96016.66;4214846;28;20044;-85
2021/03/29 01:33:07;;;;;;;8.05;4.00;;;;;;;8.11;44.63;96012.88;4210663;28;20044;-84
2021/03/29 01:35:17;;;;;;;6.50;3.80;;;;;;;8.08;44.52;96013.09;4200378;28;20049;-85
2021/03/29 01:37:19;;;;;;;6.78;3.70;;;;;;;8.09;44.50;96015.59;4206674;28;20410;-83
2021/03/29 01:39:20;;;;;;;6.18;3.70;;;;;;;8.16;44.74;96014.22;4212358;28;20048;-83
2021/03/29 01:41:22;;;;;;;5.50;3.17;;;;;;;8.13;44.27;96011.84;4195852;28;20491;-84
2021/03/29 01:43:23;;;;;;;6.07;3.95;;;;;;;8.12;44.62;96015.38;4204075;28;20072;-85
2021/03/29 01:45:25;;;;;;;5.88;3.53;;;;;;;8.05;44.35;96013.34;4221151;28;20059;-85
2021/03/29 01:47:27;;;;;;;6.80;3.60;;;;;;;8.05;44.06;96011.56;4213619;28;20048;-83
2021/03/29 01:49:28;;;;;;;6.38;3.63;;;;;;;8.03;44.06;96010.81;4212357;28;20040;-85
2021/03/29 01:51:29;;;;;;;6.50;3.50;;;;;;;8.11;43.98;96013.72;4209331;28;20059;-71
2021/03/29 01:53:33;;;;;;;8.90;3.90;;;;;;;8.10;44.50;96013.81;4209535;28;20052;-71
2021/03/29 01:55:35;;;;;;;6.00;3.70;;;;;;;8.17;44.05;96005.44;4225119;28;20059;-70
2021/03/29 01:57:37;;;;;;;6.43;3.75;;;;;;;8.21;44.04;96014.69;4194731;28;20051;-85
2021/03/29 01:59:38;;;;;;;8.60;3.47;;;;;;;8.16;44.70;96008.97;4212029;28;20059;-82
2021/03/29 02:01:39;;;;;;;4.90;3.65;;;;;;;7.88;45.06;96012.75;4197579;28;20491;-83
2021/03/29 02:03:43;;;;;;;7.93;4.15;;;;;;;7.67;45.79;96012.50;4221573;28;20069;-85
2021/03/29 02:05:44;;;;;;;4.88;3.70;;;;;;;7.56;46.00;96020.28;4215769;28;20493;-84
2021/03/29 02:07:46;;;;;;;9.50;4.00;;;;;;;7.38;46.46;96023.22;4233065;28;20520;-86
2021/03/29 02:09:47;;;;;;;7.20;3.58;;;;;;;7.33;46.62;96025.31;4231211;28;20048;-86
2021/03/29 02:11:49;;;;;;;6.45;4.30;;;;;;;7.28;47.11;96022.19;4231496;28;20055;-86
2021/03/29 02:13:53;;;;;;;12.27;4.05;;;;;;;7.39;47.04;96017.06;4214832;28;20059;-84
2021/03/29 02:15:59;;;;;;;8.48;4.53;;;;;;;7.53;46.54;96021.31;4227471;28;20043;-85
2021/03/29 02:18:03;;;;;;;9.13;4.47;;;;;;;7.67;46.13;96020.34;4214983;28;20200;-84
2021/03/29 02:20:16;;;;;;;8.93;4.10;;;;;;;7.80;45.66;96020.31;4221241;28;20044;-84
2021/03/29 02:22:17;;;;;;;8.40;4.28;;;;;;;7.89;45.35;96014.41;4227527;28;20120;-85
2021/03/29 02:24:19;;;;;;;10.75;4.00;;;;;;;7.98;44.96;96013.78;4232189;28;20059;-85
2021/03/29 02:26:21;;;;;;;10.18;4.07;;;;;;;8.02;45.21;96019.59;4213989;28;20089;-85
2021/03/29 02:28:22;;;;;;;8.30;4.10;;;;;;;8.04;45.37;96012.47;4216035;28;20134;-85
2021/03/29 02:30:27;;;;;;;7.82;3.63;;;;;;;8.10;45.10;96009.44;4214514;28;20081;-85
2021/03/29 02:32:28;;;;;;;8.02;3.90;;;;;;;8.15;44.91;96009.94;4231515;28;20135;-86
2021/03/29 02:34:29;;;;;;;8.93;4.05;;;;;;;8.17;45.03;96015.88;4198088;28;20412;-86
2021/03/29 02:36:31;;;;;;;9.75;3.95;;;;;;;8.17;44.75;96018.50;4197559;28;20053;-84
2021/03/29 02:38:33;;;;;;;7.75;4.28;;;;;;;8.13;44.93;96013.59;4199048;28;20076;-85
2021/03/29 02:40:34;;;;;;;7.63;4.03;;;;;;;8.15;45.18;96015.16;4196496;28;20047;-85
2021/03/29 02:42:37;;;;;;;8.52;4.47;;;;;;;8.18;45.29;96012.31;4196863;28;20053;-85
2021/03/29 02:44:38;;;;;;;12.90;4.40;;;;;;;8.15;45.34;96009.94;4197725;28;20132;-84
2021/03/29 02:46:40;;;;;;;10.30;4.28;;;;;;;8.06;45.75;96010.59;4196910;28;20245;-83
2021/03/29 02:48:45;;;;;;;11.93;4.18;;;;;;;7.98;45.91;96013.78;4198164;28;20090;-84
2021/03/29 02:50:48;;;;;;;10.35;4.43;;;;;;;7.93;45.90;96010.66;4198502;28;20059;-84
2021/03/29 02:52:52;;;;;;;9.27;4.60;;;;;;;7.93;46.26;96015.03;4211111;28;20058;-85
2021/03/29 02:54:55;;;;;;;12.85;4.75;;;;;;;7.80;46.60;96015.09;4197403;28;20080;-85
2021/03/29 02:56:57;;;;;;;9.23;4.53;;;;;;;7.77;46.66;96020.53;4204569;28;20115;-85
2021/03/29 02:59:04;;;;;;;9.07;5.10;;;;;;;7.75;46.95;96018.03;4189029;28;20053;-85
2021/03/29 03:01:09;;;;;;;10.48;5.10;;;;;;;7.73;47.09;96014.69;4229083;28;20415;-85
2021/03/29 03:03:12;;;;;;;8.70;4.95;;;;;;;7.64;46.75;96020.56;4197855;28;20097;-85
2021/03/29 03:05:14;;;;;;;9.27;5.38;;;;;;;7.58;47.26;96021.00;4198935;28;20052;-85
2021/03/29 03:07:16;;;;;;;9.45;5.10;;;;;;;7.59;46.91;96020.03;4198964;28;20052;-85
2021/03/29 03:09:17;;;;;;;10.68;5.35;;;;;;;7.60;47.27;96026.94;4218118;28;20148;-83
2021/03/29 03:11:20;;;;;;;11.93;6.13;;;;;;;7.53;47.70;96020.50;4198864;28;20053;-89
2021/03/29 03:13:21;;;;;;;12.75;6.63;;;;;;;7.29;48.17;96025.63;4198448;28;20047;-85
2021/03/29 03:15:26;;;;;;;10.70;6.10;;;;;;;7.21;48.22;96028.78;4197587;28;20079;-88
2021/03/29 03:17:28;;;;;;;10.25;6.35;;;;;;;7.16;48.26;96026.50;4197987;28;20427;-83
2021/03/29 03:19:29;;;;;;;9.48;5.20;;;;;;;7.14;47.93;96033.59;4197053;28;20044;-86
2021/03/29 03:21:33;;;;;;;12.50;6.32;;;;;;;7.29;47.84;96031.69;4199908;28;20143;-87
2021/03/29 03:23:34;;;;;;;;;;;;;;;7.35;47.56;96026.03;4197582;28;20053;-86
2021/03/29 03:25:38;;;;;;;12.10;6.28;;;;;;;7.46;47.58;96022.69;4196572;28;19920;-86
2021/03/29 03:27:39;;;;;;;11.82;6.55;;;;;;;7.55;47.91;96027.28;4198365;28;20492;-86
2021/03/29 03:29:41;;;;;;;13.85;7.45;;;;;;;7.51;47.59;96025.00;4197626;28;20123;-84
2021/03/29 03:31:42;;;;;;;16.10;6.57;;;;;;;7.39;48.40;96027.50;4184587;28;20203;-84
2021/03/29 03:33:44;;;;;;;16.42;6.22;;;;;;;7.44;47.84;96023.72;4208040;28;20052;-82
2021/03/29 03:35:46;;;;;;;14.10;6.35;;;;;;;7.42;48.04;96023.88;4206400;28;20298;-85
2021/03/29 03:37:53;;;;;;;9.95;5.43;;;;;;;7.39;47.88;96026.66;4205918;28;20482;-83
2021/03/29 03:39:55;;;;;;;8.82;6.00;;;;;;;7.26;47.60;96029.28;4220296;28;20052;-84
2021/03/29 03:41:56;;;;;;;10.88;5.30;;;;;;;7.17;47.86;96037.75;4211250;28;20052;-70
2021/03/29 03:43:59;;;;;;;10.13;5.93;;;;;;;7.09;48.04;96037.44;4209461;28;20052;-71
2021/03/29 03:46:03;;;;;;;9.48;5.70;;;;;;;7.16;48.18;96034.31;4193607;28;20842;-70
2021/03/29 03:48:06;;;;;;;14.48;6.00;;;;;;;7.30;47.84;96037.75;4195778;28;20043;-70
2021/03/29 03:50:09;;;;;;;12.25;5.32;;;;;;;7.39;48.02;96035.31;4200630;28;20472;-71
2021/03/29 03:52:10;;;;;;;11.00;5.43;;;;;;;7.42;47.54;96026.47;4194023;28;20052;-71
2021/03/29 03:54:12;;;;;;;11.35;5.97;;;;;;;7.52;47.75;96027.47;4192350;28;20071;-71
2021/03/29 03:56:13;;;;;;;12.30;5.65;;;;;;;7.63;48.09;96031.94;4193164;28;20049;-71
2021/03/29 03:58:16;;;;;;;10.57;5.50;;;;;;;7.71;47.64;96032.22;4192695;28;20128;-70
2021/03/29 04:00:19;;;;;;;11.95;5.82;;;;;;;7.76;47.49;96032.72;4210575;28;20081;-70
2021/03/29 04:02:20;;;;;;;11.82;5.85;;;;;;;7.80;47.04;96026.34;4194346;28;20049;-72
2021/03/29 04:04:21;;;;;;;9.77;4.93;;;;;;;7.86;47.32;96026.88;4179584;28;20110;-72
2021/03/29 04:06:23;;;;;;;9.07;5.05;;;;;;;7.88;47.01;96027.59;4193302;28;20178;-72
2021/03/29 04:08:24;;;;;;;9.27;5.30;;;;;;;7.91;46.88;96017.75;4192499;28;20071;-71
2021/03/29 04:11:11;;;;;;;10.55;5.10;;;;;;;7.92;46.90;96013.38;4182618;28;20118;-70
2021/03/29 04:12:53;;;;;;;13.75;6.13;;;;;;;7.96;47.28;96001.78;4197485;28;20667;-72
2021/03/29 04:14:54;;;;;;;14.68;5.50;;;;;;;7.99;47.27;96004.16;4193323;28;20419;-72
2021/03/29 04:16:55;;;;;;;8.45;5.38;;;;;;;8.01;47.20;96004.88;4201057;28;20060;-71
2021/03/29 04:18:56;;;;;;;13.95;5.40;;;;;;;8.04;47.08;96001.22;4199094;28;20064;-71
2021/03/29 04:20:58;;;;;;;11.30;5.72;;;;;;;8.04;46.55;96006.44;4194462;28;20056;-71
2021/03/29 04:23:00;;;;;;;14.32;5.38;;;;;;;7.92;46.67;96006.38;4188392;28;20106;-71
2021/03/29 04:25:01;;;;;;;9.80;5.13;;;;;;;7.92;46.67;96013.38;4189932;28;20158;-72
2021/03/29 04:27:03;;;;;;;9.70;5.20;;;;;;;7.93;46.84;96009.81;4187018;28;20060;-72
2021/03/29 04:29:04;;;;;;;16.35;5.93;;;;;;;7.97;47.08;96011.25;4195105;28;20059;-71
2021/03/29 04:31:06;;;;;;;11.77;5.30;;;;;;;7.99;46.94;96012.81;4199740;28;20044;-71
2021/03/29 04:33:07;;;;;;;12.60;5.93;;;;;;;8.02;47.04;96003.94;4219155;27;20510;-73
2021/03/29 04:35:09;;;;;;;12.60;5.22;;;;;;;8.05;47.05;96002.91;4231238;27;20425;-86
2021/03/29 04:37:10;;;;;;;18.52;6.22;;;;;;;8.06;47.38;96002.75;4231814;28;20044;-87
2021/03/29 04:39:11;;;;;;;15.15;6.22;;;;;;;8.03;47.82;96003.00;4221744;28;20074;-86
2021/03/29 04:41:12;;;;;;;18.13;6.88;;;;;;;8.05;48.71;96008.13;4225829;28;20079;-86
2021/03/29 04:43:14;;;;;;;13.88;7.05;;;;;;;8.04;47.96;96016.88;4232010;28;20128;-85
2021/03/29 04:45:16;;;;;;;13.57;6.47;;;;;;;8.04;47.89;96022.09;4231684;28;20116;-85
2021/03/29 04:47:17;;;;;;;18.00;6.80;;;;;;;8.07;47.39;96022.72;4213273;28;20064;-86
2021/03/29 04:49:19;;;;;;;10.98;6.15;;;;;;;8.05;48.21;96032.44;4215286;28;20410;-84
2021/03/29 04:51:20;;;;;;;24.80;8.23;;;;;;;7.61;49.13;96041.63;4230718;28;20058;-71
2021/03/29 04:53:21;;;;;;;38.97;10.65;;;;;;;7.08;51.64;96054.84;4234394;28;20039;-72
2021/03/29 04:55:23;;;;;;;31.13;9.98;;;;;;;6.65;53.56;96064.72;4215810;28;20213;-70
2021/03/29 04:57:24;;;;;;;38.40;11.32;;;;;;;6.25;54.79;96054.28;4212847;28;20056;-84
2021/03/29 04:59:26;;;;;;;31.98;9.68;;;;;;;6.23;55.15;96050.94;4213807;28;20147;-85
2021/03/29 05:01:27;;;;;;;19.55;8.85;;;;;;;6.33;55.04;96057.25;4217471;28;20108;-85
2021/03/29 05:03:28;;;;;;;25.55;10.60;;;;;;;6.32;55.61;96058.16;4212221;28;20050;-87
2021/03/29 05:05:30;;;;;;;23.08;10.52;;;;;;;6.30;55.09;96044.41;4230948;28;20054;-86
2021/03/29 05:07:31;;;;;;;22.08;12.10;;;;;;;6.51;55.01;96052.59;4232096;28;20047;-86
2021/03/29 05:09:32;;;;;;;27.00;11.40;;;;;;;6.66;55.04;96053.34;4194942;28;20091;-85
2021/03/29 05:11:50;;;;;;;28.75;11.43;;;;;;;6.82;54.25;96047.94;4232841;28;20054;-89
2021/03/29 05:13:51;;;;;;;26.30;10.82;;;;;;;6.98;53.82;96048.59;4219542;28;20048;-87
2021/03/29 05:15:52;;;;;;;30.02;11.43;;;;;;;7.05;53.42;96055.03;4230948;28;20055;-88
2021/03/29 05:17:57;;;;;;;36.25;12.57;;;;;;;7.11;53.11;96059.84;4224898;28;20065;-86
2021/03/29 05:19:59;;;;;;;37.47;17.33;;;;;;;7.22;52.66;96060.88;4196086;28;20148;-86
2021/03/29 05:22:01;;;;;;;27.00;11.48;;;;;;;7.33;52.04;96059.19;4208334;28;20056;-84
2021/03/29 05:24:04;;;;;;;23.48;11.77;;;;;;;7.40;52.46;96057.03;4211995;28;20048;-85
2021/03/29 05:26:05;;;;;;;27.55;12.95;;;;;;;7.50;52.35;96055.41;4227546;28;20051;-87
2021/03/29 05:28:06;;;;;;;33.17;14.80;;;;;;;7.40;51.26;96054.41;4218830;28;20101;-87
2021/03/29 05:30:08;;;;;;;28.92;15.25;;;;;;;7.41;51.32;96050.84;4230525;28;20055;-87
2021/03/29 05:32:12;;;;;;;33.05;15.88;;;;;;;7.53;51.13;96043.97;4217227;28;20413;-86
2021/03/29 05:34:15;;;;;;;25.33;12.90;;;;;;;7.62;49.88;96051.13;4248551;27;20054;-87
2021/03/29 05:36:17;;;;;;;20.83;12.13;;;;;;;7.76;49.64;96050.97;4221272;28;20052;-87
2021/03/29 05:38:18;;;;;;;24.50;12.38;;;;;;;7.86;49.89;96047.75;4219281;28;20047;-87
2021/03/29 05:40:20;;;;;;;28.98;11.35;;;;;;;7.95;49.52;96047.06;4222449;28;20044;-84
2021/03/29 05:42:23;;;;;;;27.02;12.00;;;;;;;7.63;49.31;96055.41;4244987;28;20387;-87
2021/03/29 05:44:25;;;;;;;34.28;16.52;;;;;;;7.12;50.60;96060.66;4214683;28;20060;-72
2021/03/29 05:46:27;;;;;;;21.02;9.35;;;;;;;6.80;50.70;96068.91;4229719;28;20051;-72
2021/03/29 05:48:28;;;;;;;21.60;9.18;;;;;;;6.71;51.17;96072.09;4230740;28;20050;-72
2021/03/29 05:50:29;;;;;;;22.92;10.38;;;;;;;6.94;51.46;96062.75;4211263;28;20056;-72
2021/03/29 05:52:31;;;;;;;15.95;8.02;;;;;;;7.16;49.77;96067.34;4211952;28;20051;-72
2021/03/29 05:54:32;;;;;;;18.08;9.02;;;;;;;7.37;48.92;96071.09;4227919;28;20526;-72
2021/03/29 05:56:39;;;;;;;23.77;10.15;;;;;;;7.56;48.86;96065.44;4193708;28;20048;-72
2021/03/29 05:58:55;;;;;;;20.00;8.75;;;;;;;7.83;48.50;96058.38;4212931;28;20048;-71
2021/03/29 06:00:56;;;;;;;22.48;8.27;;;;;;;8.13;47.67;96064.03;4224551;28;20149;-70
2021/03/29 06:03:27;;;;;;;29.33;9.23;;;;;;;8.32;46.94;96065.28;4197612;28;20470;-72
2021/03/29 06:05:32;;;;;;;14.98;6.57;;;;;;;8.48;46.17;96062.44;4228817;28;20054;-72
2021/03/29 06:07:34;;;;;;;20.38;6.80;;;;;;;8.44;46.04;96064.44;4195518;28;20052;-73
2021/03/29 06:09:35;;;;;;;12.50;6.30;;;;;;;8.43;45.91;96067.97;4227234;28;20051;-72
2021/03/29 06:11:39;;;;;;;11.50;6.60;;;;;;;8.40;45.38;96066.44;4228999;28;20134;-73
2021/03/29 06:14:13;;;;;;;11.27;5.85;;;;;;;8.45;45.80;96070.50;4215440;28;20047;-73
2021/03/29 06:16:15;;;;;;;13.98;6.50;;;;;;;8.39;45.38;96069.16;4210638;28;20048;-73
2021/03/29 06:18:17;;;;;;;16.50;6.20;;;;;;;8.22;45.95;96065.16;4227973;28;20055;-71
2021/03/29 06:20:18;;;;;;;18.77;6.03;;;;;;;8.00;46.36;96069.31;4212401;28;20040;-72
2021/03/29 06:22:32;;;;;;;9.32;5.03;;;;;;;8.20;45.89;96064.44;4211393;28;20051;-72
2021/03/29 06:24:51;;;;;;;10.25;5.32;;;;;;;8.29;45.61;96062.94;4209428;28;20066;-73
2021/03/29 06:27:03;;;;;;;15.75;5.10;;;;;;;8.37;45.33;96058.81;4228887;28;20047;-73
2021/03/29 06:29:17;;;;;;;7.68;4.22;;;;;;;7.95;45.82;96055.72;4214151;28;20131;-72
2021/03/29 06:31:21;;;;;;;;;;;;;;;7.79;46.32;96060.38;4229807;28;20496;-73
2021/03/29 06:33:24;;;;;;;9.68;4.97;;;;;;;7.54;46.56;96059.47;4226572;28;20043;-73
2021/03/29 06:35:33;;;;;;;11.23;5.25;;;;;;;7.64;47.08;96064.91;4210932;28;20765;-72
2021/03/29 06:37:34;;;;;;;13.77;5.10;;;;;;;7.76;46.79;96065.81;4229476;28;20055;-72
2021/03/29 06:39:41;;;;;;;14.73;5.50;;;;;;;8.01;46.15;96059.69;4210511;28;20483;-74
2021/03/29 06:41:54;;;;;;;12.13;5.25;;;;;;;7.94;46.11;96063.69;4213420;28;20044;-73
2021/03/29 06:43:55;;;;;;;11.82;4.85;;;;;;;8.04;46.30;96067.28;4228771;28;20452;-73
2021/03/29 06:46:00;;;;;;;11.52;5.38;;;;;;;7.92;46.75;96065.56;4243286;27;20138;-72
2021/03/29 06:48:03;;;;;;;5.82;4.20;;;;;;;7.98;46.66;96065.97;4224053;28;20083;-71
2021/03/29 06:50:05;;;;;;;9.68;4.63;;;;;;;8.23;46.29;96063.38;4227623;27;20046;-73
2021/03/29 06:52:35;;;;;;;10.20;5.18;;;;;;;8.40;45.46;96068.19;4228410;28;20143;-74
2021/03/29 06:54:36;;;;;;;7.20;4.85;;;;;;;8.59;44.00;96071.16;4214720;28;20208;-73
2021/03/29 06:56:44;;;;;;;14.57;4.72;;;;;;;8.79;42.96;96067.03;4215926;28;20039;-72
2021/03/29 06:58:46;;;;;;;8.30;4.80;;;;;;;8.97;42.78;96070.09;4241207;27;20062;-72
2021/03/29 07:00:53;;;;;;;7.63;4.05;;;;;;;9.19;42.44;96066.66;4210834;28;20499;-71
2021/03/29 07:02:58;;;;;;;7.38;4.35;;;;;;;8.75;42.22;96081.28;4196764;28;20072;-73
2021/03/29 07:05:00;;;;;;;11.20;5.10;;;;;;;8.76;42.98;96069.06;4223323;28;20054;-74
2021/03/29 07:07:11;;;;;;;7.10;3.80;;;;;;;8.98;41.77;96070.91;4218371;28;20104;-72
2021/03/29 07:09:19;;;;;;;6.47;3.80;;;;;;;9.30;41.07;96065.84;4232391;27;20467;-73
2021/03/29 07:11:21;;;;;;;13.32;5.53;;;;;;;9.50;41.29;96063.47;4224682;28;20482;-73
2021/03/29 07:13:22;;;;;;;8.88;4.70;;;;;;;9.49;40.38;96072.28;4211538;28;20434;-73
2021/03/29 07:15:24;;;;;;;10.43;4.47;;;;;;;9.35;40.52;96078.56;4211060;28;20117;-72
2021/03/29 07:17:25;;;;;;;5.70;3.20;;;;;;;9.21;38.77;96083.06;4210677;28;20225;-71
2021/03/29 07:19:27;;;;;;;6.10;3.70;;;;;;;9.41;39.23;96073.69;4210035;28;20062;-73
2021/03/29 07:21:29;;;;;;;15.52;3.92;;;;;;;9.61;38.98;96073.94;4208047;28;20515;-73
2021/03/29 07:23:31;;;;;;;10.77;3.90;;;;;;;9.22;40.05;96079.50;4230007;27;20047;-72
2021/03/29 07:25:35;;;;;;;8.85;4.45;;;;;;;9.19;40.41;96081.53;4229947;27;20052;-71
2021/03/29 07:27:49;;;;;;;7.43;3.70;;;;;;;9.12;39.69;96081.16;4211679;28;20507;-73
2021/03/29 07:29:50;;;;;;;6.28;3.50;;;;;;;8.65;40.55;96082.06;4213806;28;20512;-72
2021/03/29 07:31:56;;;;;;;12.30;5.05;;;;;;;8.69;40.43;96083.53;4196873;28;20048;-72
2021/03/29 07:34:01;;;;;;;6.68;3.75;;;;;;;8.99;39.74;96081.25;4210740;28;20523;-71
2021/03/29 07:36:02;;;;;;;16.15;4.30;;;;;;;9.16;39.35;96080.00;4230855;27;20058;-75
2021/03/29 07:38:04;;;;;;;7.32;4.10;;;;;;;9.43;38.93;96077.03;4226044;28;20120;-72
2021/03/29 07:40:34;;;;;;;6.97;3.15;;;;;;;9.71;38.28;96074.06;4191643;28;20075;-72
2021/03/29 07:42:37;;;;;;;5.88;3.30;;;;;;;9.74;37.55;96069.41;4234317;27;20054;-72
2021/03/29 07:44:54;;;;;;;6.45;3.72;;;;;;;9.83;38.42;96075.72;4193422;28;20052;-72
2021/03/29 07:46:56;;;;;;;6.43;3.88;;;;;;;9.85;37.99;96073.78;4227723;28;20082;-72
2021/03/29 07:48:58;;;;;;;14.00;6.35;;;;;;;9.64;39.52;96073.72;4227212;28;20426;-73
2021/03/29 07:51:22;;;;;;;8.57;4.15;;;;;;;9.33;39.77;96085.69;4211624;28;20346;-75
2021/03/29 07:53:52;;;;;;;8.90;4.40;;;;;;;9.56;39.00;96074.28;4197985;28;20075;-74
2021/03/29 07:55:56;;;;;;;18.38;6.90;;;;;;;9.45;40.04;96086.56;4198312;28;20045;-74
2021/03/29 07:58:00;;;;;;;6.85;3.85;;;;;;;9.65;39.68;96077.97;4192375;28;20090;-74
2021/03/29 08:00:01;;;;;;;8.68;4.50;;;;;;;9.72;39.74;96078.31;4209970;28;20048;-74
2021/03/29 08:02:05;;;;;;;10.65;3.45;;;;;;;9.87;38.19;96074.50;4216507;28;20054;-72
2021/03/29 08:04:07;;;;;;;10.05;3.10;;;;;;;10.06;37.97;96073.88;4221570;28;20067;-74
2021/03/29 08:06:47;;;;;;;7.68;3.72;;;;;;;9.93;38.14;96071.41;4212239;28;20101;-73
2021/03/29 08:08:53;;;;;;;9.60;3.47;;;;;;;10.14;36.97;96073.28;4226791;28;20055;-75
2021/03/29 08:11:14;;;;;;;10.32;4.82;;;;;;;10.15;37.42;96062.69;4224719;28;20050;-72
2021/03/29 08:13:33;;;;;;;8.85;4.20;;;;;;;9.69;37.81;96083.81;4229013;28;20048;-72
2021/03/29 08:16:07;;;;;;;11.25;3.83;;;;;;;9.86;37.62;96074.66;4209965;28;20438;-72
2021/03/29 08:18:08;;;;;;;9.80;4.05;;;;;;;9.74;37.45;96074.63;4228347;28;20039;-73
2021/03/29 08:20:21;;;;;;;8.23;4.53;;;;;;;10.01;36.64;96066.41;4208968;28;20054;-73
2021/03/29 08:22:23;;;;;;;9.25;3.97;;;;;;;10.16;36.74;96074.81;4210365;28;20396;-73
2021/03/29 08:24:27;;;;;;;5.10;3.65;;;;;;;10.33;36.17;96075.31;4226317;28;20493;-73
2021/03/29 08:26:38;;;;;;;5.95;3.42;;;;;;;10.10;36.76;96064.00;4226209;28;20062;-73
2021/03/29 08:29:08;;;;;;;5.97;3.30;;;;;;;9.97;37.31;96064.16;4210597;28;20384;-73
2021/03/29 08:31:09;;;;;;;10.70;3.55;;;;;;;9.73;38.59;96070.38;4227277;28;20046;-74
2021/03/29 08:33:11;;;;;;;5.35;2.97;;;;;;;9.63;38.75;96077.25;4209272;28;20147;-72
2021/03/29 08:35:22;;;;;;;6.60;3.40;;;;;;;10.01;39.01;96066.41;4208612;28;20515;-70
2021/03/29 08:37:36;;;;;;;7.88;3.60;;;;;;;10.01;38.13;96076.03;4210755;28;20418;-73
2021/03/29 08:39:43;;;;;;;13.30;3.83;;;;;;;10.08;37.94;96071.97;4225337;28;20051;-72
2021/03/29 08:41:45;;;;;;;5.63;3.20;;;;;;;10.33;37.80;96075.31;4227127;28;20142;-73
2021/03/29 08:43:46;;;;;;;10.27;3.85;;;;;;;10.51;37.19;96070.34;4208477;28;20051;-73
2021/03/29 08:45:49;;;;;;;6.90;2.95;;;;;;;10.80;37.00;96074.03;4208609;28;20055;-73
2021/03/29 08:47:56;;;;;;;9.93;3.47;;;;;;;10.79;36.72;96074.97;4211312;28;20418;-72
2021/03/29 08:50:00;;;;;;;9.25;3.17;;;;;;;10.75;36.01;96070.13;4226670;28;20048;-72
2021/03/29 08:52:02;;;;;;;7.00;2.70;;;;;;;10.34;35.20;96066.47;4227917;28;20044;-73
2021/03/29 08:54:08;;;;;;;8.10;2.85;;;;;;;10.21;35.79;96062.19;4206834;28;20056;-74
2021/03/29 08:56:10;;;;;;;8.55;3.70;;;;;;;9.86;37.76;96066.78;4191274;28;20132;-72
2021/03/29 08:58:12;;;;;;;8.43;3.80;;;;;;;9.76;38.51;96061.44;4227963;28;20074;-72
2021/03/29 09:00:16;;;;;;;6.72;3.40;;;;;;;10.01;39.00;96063.78;4192407;28;20414;-74
2021/03/29 09:02:17;;;;;;;8.57;3.22;;;;;;;9.78;39.39;96062.16;4202671;28;20478;-73
2021/03/29 09:04:19;;;;;;;6.80;3.63;;;;;;;10.00;38.01;96064.75;4226584;28;20051;-72
2021/03/29 09:06:20;;;;;;;10.18;3.67;;;;;;;10.05;38.66;96056.53;4208087;28;20095;-71
2021/03/29 09:08:25;;;;;;;7.82;3.60;;;;;;;10.59;37.88;96058.28;4209074;28;20113;-72
2021/03/29 09:10:36;;;;;;;4.72;3.20;;;;;;;10.97;37.04;96043.81;4225989;28;20542;-74
2021/03/29 09:12:37;;;;;;;7.65;3.50;;;;;;;11.02;36.66;96059.97;4212072;28;20090;-73
2021/03/29 09:14:38;;;;;;;12.25;3.90;;;;;;;11.07;37.19;96046.47;4211069;28;20048;-72
2021/03/29 09:16:40;;;;;;;7.38;3.85;;;;;;;11.35;36.98;96042.34;4212933;28;20065;-72
2021/03/29 09:18:41;;;;;;;4.60;3.15;;;;;;;11.43;36.43;96039.88;4229348;28;20427;-73
2021/03/29 09:20:45;;;;;;;8.10;3.30;;;;;;;10.82;37.02;96045.91;4212764;28;20171;-73
2021/03/29 09:22:47;;;;;;;6.43;3.22;;;;;;;11.12;37.20;96036.44;4229636;28;20131;-73
2021/03/29 09:24:48;;;;;;;12.98;3.78;;;;;;;11.45;36.65;96039.78;4209335;28;20052;-72
2021/03/29 09:27:01;;;;;;;9.45;3.88;;;;;;;11.41;36.46;96036.56;4230800;28;20047;-72
2021/03/29 09:29:02;;;;;;;10.10;4.35;;;;;;;10.90;37.04;96047.06;4229913;28;20530;-73
2021/03/29 09:31:19;;;;;;;5.15;3.30;;;;;;;10.79;37.67;96035.66;4230680;28;20055;-73
2021/03/29 09:33:21;;;;;;;8.63;3.70;;;;;;;10.75;37.92;96036.03;4194726;28;20057;-73
2021/03/29 09:35:23;;;;;;;6.10;3.65;;;;;;;10.90;37.75;96041.81;4212647;28;20123;-73
2021/03/29 09:37:27;;;;;;;5.78;2.72;;;;;;;11.33;36.65;96039.00;4211996;28;20550;-73
2021/03/29 09:39:33;;;;;;;5.35;2.80;;;;;;;11.66;36.21;96018.72;4201529;28;20059;-72
2021/03/29 09:41:36;;;;;;;7.85;3.08;;;;;;;12.02;35.67;96025.22;4196073;28;20124;-72
2021/03/29 09:43:41;;;;;;;6.10;3.20;;;;;;;11.84;35.22;96024.16;4194517;28;20495;-72
2021/03/29 09:45:42;;;;;;;8.45;3.80;;;;;;;11.37;36.41;96024.66;4195865;28;20052;-73
2021/03/29 09:48:08;;;;;;;9.52;4.07;;;;;;;11.34;37.04;96018.88;4177482;28;20540;-72